Time;durP1;ratioP1;P1;durP2;ratioP2;P2;SDS_P1;SDS_P2;PMS_P1;PMS_P2;Temp;Humidity;BMP_temperature;BMP_pressure;BME280_temperature;BME280_humidity;BME280_pressure;Samples;Min_cycle;Max_cycle;Signal;HPM_P1;HPM_P2
2022/05/01 00:01:41;;;;;;;9.90;3.38;;;;;;;;;;5110566;28;20032;-52
2022/05/01 00:04:07;;;;;;;7.55;3.22;;;;;;;;;;5101432;28;20024;-55
2022/05/01 00:06:33;;;;;;;6.75;3.38;;;;;;;;;;5102422;28;20414;-54
2022/05/01 00:09:00;;;;;;;7.07;3.63;;;;;;;;;;5110306;28;20020;-55
2022/05/01 00:11:26;;;;;;;8.77;3.38;;;;;;;;;;5109822;28;20046;-56
2022/05/01 00:13:52;;;;;;;10.02;3.47;;;;;;;;;;5108864;28;20034;-53
2022/05/01 00:16:18;;;;;;;11.95;4.35;;;;;;;;;;5109394;28;20118;-54
2022/05/01 00:18:45;;;;;;;6.38;3.15;;;;;;;;;;5110553;28;20115;-54
2022/05/01 00:21:11;;;;;;;6.80;3.42;;;;;;;;;;5110188;28;20118;-55
2022/05/01 00:23:37;;;;;;;5.93;3.05;;;;;;;;;;5110164;28;20772;-55
2022/05/01 00:26:04;;;;;;;7.10;3.58;;;;;;;;;;5109720;28;20110;-54
2022/05/01 00:28:32;;;;;;;9.02;4.03;;;;;;;;;;5109745;28;20019;-54
2022/05/01 00:30:58;;;;;;;12.40;4.00;;;;;;;;;;5090206;28;20139;-52
2022/05/01 00:36:27;;;;;;;5.68;3.15;;;;;;;;;;5110184;28;20031;-52
2022/05/01 00:39:01;;;;;;;6.65;3.50;;;;;;;;;;5110487;28;20416;-50
2022/05/01 00:41:28;;;;;;;7.93;3.65;;;;;;;;;;5109957;28;20031;-53
2022/05/01 00:43:58;;;;;;;9.70;3.78;;;;;;;;;;5094197;28;20885;-55
2022/05/01 00:46:24;;;;;;;7.20;3.28;;;;;;;;;;5109739;28;20051;-55
2022/05/01 00:48:50;;;;;;;7.13;3.22;;;;;;;;;;5109491;28;20030;-55
2022/05/01 00:51:17;;;;;;;6.55;3.40;;;;;;;;;;5109569;28;20450;-55
2022/05/01 00:53:43;;;;;;;6.00;3.22;;;;;;;;;;5109420;28;20047;-53
2022/05/01 00:56:09;;;;;;;4.95;2.95;;;;;;;;;;5109346;28;20235;-55
2022/05/01 00:58:35;;;;;;;6.65;3.13;;;;;;;;;;5109582;28;20107;-55
2022/05/01 01:01:02;;;;;;;7.20;2.75;;;;;;;;;;5108285;28;20118;-54
2022/05/01 01:03:28;;;;;;;6.68;3.00;;;;;;;;;;5109621;28;20032;-52
2022/05/01 01:05:54;;;;;;;6.10;3.17;;;;;;;;;;5109395;28;20031;-53
2022/05/01 01:08:21;;;;;;;7.30;3.00;;;;;;;;;;5109038;27;20363;-55
2022/05/01 01:10:47;;;;;;;7.82;3.00;;;;;;;;;;5109319;28;20031;-53
2022/05/01 01:13:13;;;;;;;6.28;3.17;;;;;;;;;;5109332;28;20023;-53
2022/05/01 01:15:41;;;;;;;7.28;3.33;;;;;;;;;;5100269;28;20600;-54
2022/05/01 01:18:07;;;;;;;8.57;4.22;;;;;;;;;;5109287;28;20416;-51
2022/05/01 01:20:33;;;;;;;6.43;2.70;;;;;;;;;;5108696;28;20548;-55
2022/05/01 01:23:00;;;;;;;8.02;3.47;;;;;;;;;;5108618;28;20026;-55
2022/05/01 01:25:29;;;;;;;6.30;3.42;;;;;;;;;;5109035;28;20043;-52
2022/05/01 01:27:56;;;;;;;5.78;2.92;;;;;;;;;;5109236;28;20110;-53
2022/05/01 01:33:08;;;;;;;7.95;3.53;;;;;;;;;;5109136;28;20054;-52
2022/05/01 01:35:37;;;;;;;7.38;3.58;;;;;;;;;;5108980;28;20791;-56
2022/05/01 01:38:03;;;;;;;8.43;3.28;;;;;;;;;;5109032;28;20118;-54
2022/05/01 01:40:32;;;;;;;7.03;3.50;;;;;;;;;;5108502;28;20032;-51
2022/05/01 01:42:58;;;;;;;5.32;3.15;;;;;;;;;;5099761;28;20035;-55
2022/05/01 01:45:28;;;;;;;6.57;3.60;;;;;;;;;;5105569;28;20036;-55
2022/05/01 01:48:10;;;;;;;6.15;3.53;;;;;;;;;;5108709;28;20058;-53
2022/05/01 01:50:36;;;;;;;5.97;2.80;;;;;;;;;;5108454;28;20031;-55
2022/05/01 01:53:02;;;;;;;5.88;2.92;;;;;;;;;;5107763;28;20047;-55
2022/05/01 01:55:35;;;;;;;5.95;2.90;;;;;;;;;;5104023;28;20553;-49
2022/05/01 01:58:01;;;;;;;6.05;3.13;;;;;;;;;;5108698;28;20023;-51
2022/05/01 02:00:27;;;;;;;5.80;3.05;;;;;;;;;;5108213;28;20633;-56
2022/05/01 02:03:00;;;;;;;5.30;3.40;;;;;;;;;;5108768;28;20047;-55
2022/05/01 02:05:26;;;;;;;6.65;3.67;;;;;;;;;;5108199;28;20024;-53
2022/05/01 02:07:53;;;;;;;5.60;3.30;;;;;;;;;;5108908;28;20035;-51
2022/05/01 02:10:19;;;;;;;4.70;3.10;;;;;;;;;;5103775;28;20153;-53
2022/05/01 02:12:45;;;;;;;5.82;2.90;;;;;;;;;;5099641;28;20047;-54
2022/05/01 02:15:11;;;;;;;5.40;3.70;;;;;;;;;;5107980;28;20603;-54
2022/05/01 02:17:41;;;;;;;6.57;3.38;;;;;;;;;;5108402;28;20051;-54
2022/05/01 02:20:08;;;;;;;4.97;3.13;;;;;;;;;;5108592;28;20039;-55
2022/05/01 02:22:34;;;;;;;6.88;3.58;;;;;;;;;;5108347;28;20028;-54
2022/05/01 02:25:00;;;;;;;7.95;3.72;;;;;;;;;;5107621;28;20494;-55
2022/05/01 02:27:26;;;;;;;6.65;3.38;;;;;;;;;;5102626;28;20127;-53
2022/05/01 02:29:52;;;;;;;4.90;3.13;;;;;;;;;;5088109;28;20502;-56
2022/05/01 02:32:18;;;;;;;7.10;3.53;;;;;;;;;;5108090;28;20170;-55
2022/05/01 02:34:45;;;;;;;7.05;3.40;;;;;;;;;;5112402;28;20115;-53
2022/05/01 02:37:11;;;;;;;6.47;3.85;;;;;;;;;;5111861;28;20076;-55
2022/05/01 02:39:37;;;;;;;4.93;3.03;;;;;;;;;;5111786;28;20032;-55
2022/05/01 02:42:03;;;;;;;8.52;3.75;;;;;;;;;;5110716;28;20552;-56
2022/05/01 02:44:30;;;;;;;5.80;3.42;;;;;;;;;;5112364;28;20034;-54
2022/05/01 02:46:56;;;;;;;5.85;3.30;;;;;;;;;;5111848;27;20080;-56
2022/05/01 02:49:22;;;;;;;6.57;3.40;;;;;;;;;;5111802;28;20113;-51
2022/05/01 02:51:49;;;;;;;6.15;3.72;;;;;;;;;;5111889;28;20536;-54
2022/05/01 02:54:17;;;;;;;8.93;3.92;;;;;;;;;;5112024;28;20020;-51
2022/05/01 02:56:43;;;;;;;4.47;2.90;;;;;;;;;;5110934;28;20119;-55
2022/05/01 02:59:09;;;;;;;6.25;3.60;;;;;;;;;;5111255;28;20023;-54
2022/05/01 03:01:36;;;;;;;6.75;3.08;;;;;;;;;;5111352;28;20051;-53
2022/05/01 03:04:02;;;;;;;5.43;3.33;;;;;;;;;;5100686;28;20020;-54
2022/05/01 03:06:29;;;;;;;5.38;3.03;;;;;;;;;;5111532;28;20591;-56
2022/05/01 03:08:55;;;;;;;4.80;3.08;;;;;;;;;;5111424;28;20034;-53
2022/05/01 03:11:21;;;;;;;5.57;3.38;;;;;;;;;;5110572;28;20024;-55
2022/05/01 03:13:48;;;;;;;5.22;3.08;;;;;;;;;;5110516;28;20106;-55
2022/05/01 03:16:14;;;;;;;6.43;3.67;;;;;;;;;;5111361;28;20024;-54
2022/05/01 03:24:10;;;;;;;6.20;3.42;;;;;;;;;;5111407;28;20061;-56
2022/05/01 03:26:36;;;;;;;5.90;3.78;;;;;;;;;;5109943;28;20159;-55
2022/05/01 03:29:03;;;;;;;5.18;3.42;;;;;;;;;;5111151;28;20028;-56
2022/05/01 03:31:29;;;;;;;5.50;3.25;;;;;;;;;;5111092;28;20054;-55
2022/05/01 03:33:55;;;;;;;5.72;3.20;;;;;;;;;;5111053;28;20028;-56
2022/05/01 03:36:21;;;;;;;4.95;3.65;;;;;;;;;;5111041;28;20397;-54
2022/05/01 03:38:47;;;;;;;7.38;3.45;;;;;;;;;;5110871;28;20027;-55
2022/05/01 03:41:15;;;;;;;5.03;2.92;;;;;;;;;;5109468;28;20041;-51
2022/05/01 03:43:41;;;;;;;5.78;3.33;;;;;;;;;;5109245;28;20470;-54
2022/05/01 03:46:07;;;;;;;5.40;3.08;;;;;;;;;;5110148;28;20035;-54
2022/05/01 03:48:33;;;;;;;5.50;3.60;;;;;;;;;;5110977;27;20042;-54
2022/05/01 03:51:00;;;;;;;7.70;3.58;;;;;;;;;;5110775;28;20460;-56
2022/05/01 03:53:27;;;;;;;6.72;3.30;;;;;;;;;;5110203;28;20023;-53
2022/05/01 03:55:53;;;;;;;6.05;3.60;;;;;;;;;;5111125;28;20015;-54
2022/05/01 03:58:20;;;;;;;5.07;3.10;;;;;;;;;;5108281;28;20020;-53
2022/05/01 04:00:48;;;;;;;6.53;3.40;;;;;;;;;;5109070;28;20505;-53
2022/05/01 04:03:17;;;;;;;6.15;3.45;;;;;;;;;;5110560;28;20153;-54
2022/05/01 04:05:43;;;;;;;4.93;3.37;;;;;;;;;;5096129;28;20102;-55
2022/05/01 04:08:10;;;;;;;8.48;3.50;;;;;;;;;;5110388;28;20079;-54
2022/05/01 04:10:40;;;;;;;6.35;3.55;;;;;;;;;;5110210;28;20126;-53
2022/05/01 04:13:06;;;;;;;5.28;3.33;;;;;;;;;;5109753;28;20035;-53
2022/05/01 04:15:32;;;;;;;6.07;3.60;;;;;;;;;;5109374;28;20803;-54
2022/05/01 04:17:58;;;;;;;6.47;3.03;;;;;;;;;;5110489;28;20063;-55
2022/05/01 04:20:25;;;;;;;5.13;3.47;;;;;;;;;;5109773;28;20028;-56
2022/05/01 04:22:51;;;;;;;6.97;3.42;;;;;;;;;;5110380;28;20070;-54
2022/05/01 04:25:21;;;;;;;6.70;3.00;;;;;;;;;;5110431;28;20023;-55
2022/05/01 04:27:54;;;;;;;6.03;3.42;;;;;;;;;;5110317;28;20110;-54
2022/05/01 04:30:22;;;;;;;7.25;3.38;;;;;;;;;;5103663;28;20028;-55
2022/05/01 04:32:49;;;;;;;6.65;3.58;;;;;;;;;;5110465;28;20582;-55
2022/05/01 04:35:19;;;;;;;4.60;2.92;;;;;;;;;;5109507;28;20026;-53
2022/05/01 04:37:45;;;;;;;5.32;3.67;;;;;;;;;;5109989;28;20023;-52
2022/05/01 04:40:14;;;;;;;7.15;3.65;;;;;;;;;;5109190;28;20032;-53
2022/05/01 04:42:41;;;;;;;5.75;2.88;;;;;;;;;;5109300;28;20032;-53
2022/05/01 04:45:07;;;;;;;5.85;3.45;;;;;;;;;;5108031;28;20076;-54
2022/05/01 04:47:33;;;;;;;6.43;3.25;;;;;;;;;;5110218;27;20024;-55
2022/05/01 04:50:00;;;;;;;5.20;3.58;;;;;;;;;;5109343;28;20142;-54
2022/05/01 04:52:26;;;;;;;4.78;3.20;;;;;;;;;;5109248;28;20105;-56
2022/05/01 04:54:52;;;;;;;6.35;3.58;;;;;;;;;;5109763;28;20031;-55
2022/05/01 04:57:18;;;;;;;15.05;4.63;;;;;;;;;;5096359;28;20028;-56
2022/05/01 04:59:52;;;;;;;24.10;4.25;;;;;;;;;;5097930;28;20127;-57
2022/05/01 05:02:18;;;;;;;11.50;4.35;;;;;;;;;;5109608;28;20489;-55
2022/05/01 05:04:50;;;;;;;17.45;5.10;;;;;;;;;;5109162;28;20043;-55
2022/05/01 05:07:29;;;;;;;11.35;4.18;;;;;;;;;;5109431;28;20482;-56
2022/05/01 05:09:55;;;;;;;14.57;4.70;;;;;;;;;;5109830;28;20969;-55
2022/05/01 05:12:31;;;;;;;18.40;4.78;;;;;;;;;;5104763;28;20076;-56
2022/05/01 05:17:59;;;;;;;13.55;6.47;;;;;;;;;;5105379;28;20031;-56
2022/05/01 05:20:49;;;;;;;21.77;9.48;;;;;;;;;;5108791;28;20046;-53
2022/05/01 05:23:58;;;;;;;16.20;9.80;;;;;;;;;;5107803;28;20105;-55
2022/05/01 05:26:38;;;;;;;24.02;10.32;;;;;;;;;;5109736;28;20020;-56
2022/05/01 05:29:04;;;;;;;21.90;10.80;;;;;;;;;;5108294;28;20036;-56
2022/05/01 05:31:30;;;;;;;22.67;10.43;;;;;;;;;;5108678;28;20052;-54
2022/05/01 05:33:56;;;;;;;16.70;10.45;;;;;;;;;;5108939;28;20039;-53
2022/05/01 05:36:22;;;;;;;13.55;10.85;;;;;;;;;;5108607;28;20027;-56
2022/05/01 05:38:48;;;;;;;15.48;10.57;;;;;;;;;;5109175;28;20023;-54
2022/05/01 05:41:14;;;;;;;17.65;10.63;;;;;;;;;;5108641;28;20043;-54
2022/05/01 05:43:40;;;;;;;13.20;10.85;;;;;;;;;;5107253;28;20508;-55
2022/05/01 05:46:06;;;;;;;16.45;11.07;;;;;;;;;;5109087;28;20028;-52
2022/05/01 05:48:32;;;;;;;16.45;10.38;;;;;;;;;;5108583;28;20024;-56
2022/05/01 05:50:58;;;;;;;12.50;9.43;;;;;;;;;;5108933;28;20028;-56
2022/05/01 05:53:24;;;;;;;12.27;9.13;;;;;;;;;;5108277;28;20447;-55
2022/05/01 05:55:51;;;;;;;16.55;9.55;;;;;;;;;;5108802;28;20549;-50
2022/05/01 05:58:18;;;;;;;12.50;8.43;;;;;;;;;;5105745;28;20164;-52
2022/05/01 06:00:45;;;;;;;13.25;8.35;;;;;;;;;;5108370;28;20126;-52
2022/05/01 06:03:11;;;;;;;12.60;8.20;;;;;;;;;;5108477;28;20088;-54
2022/05/01 06:05:37;;;;;;;15.73;7.35;;;;;;;;;;5108897;28;20028;-53
2022/05/01 06:08:03;;;;;;;12.80;7.63;;;;;;;;;;5109346;28;20023;-55
2022/05/01 06:10:29;;;;;;;12.38;7.18;;;;;;;;;;5109784;28;20031;-55
2022/05/01 06:12:55;;;;;;;14.75;7.18;;;;;;;;;;5096506;28;20664;-56
2022/05/01 06:15:22;;;;;;;14.05;6.97;;;;;;;;;;5112556;28;20446;-56
2022/05/01 06:17:49;;;;;;;10.43;6.30;;;;;;;;;;5112766;28;20035;-52
2022/05/01 06:20:17;;;;;;;11.07;6.80;;;;;;;;;;5112273;28;20040;-55
2022/05/01 06:22:43;;;;;;;9.32;6.30;;;;;;;;;;5111891;28;20034;-53
2022/05/01 06:25:09;;;;;;;9.15;6.10;;;;;;;;;;5112373;28;20020;-55
2022/05/01 06:27:35;;;;;;;11.18;5.93;;;;;;;;;;5111482;28;20764;-55
2022/05/01 06:30:02;;;;;;;10.38;5.80;;;;;;;;;;5112221;28;20088;-56
2022/05/01 06:32:28;;;;;;;10.52;5.75;;;;;;;;;;5112930;28;20093;-52
2022/05/01 06:34:54;;;;;;;10.55;5.53;;;;;;;;;;5112059;28;20068;-53
2022/05/01 06:37:21;;;;;;;10.50;5.25;;;;;;;;;;5112562;28;20020;-52
2022/05/01 06:39:47;;;;;;;7.13;5.00;;;;;;;;;;5112634;27;20514;-53
2022/05/01 06:42:13;;;;;;;10.13;5.10;;;;;;;;;;5111779;28;20478;-53
2022/05/01 06:44:39;;;;;;;11.00;5.50;;;;;;;;;;5112086;28;20030;-53
2022/05/01 06:47:06;;;;;;;8.70;5.05;;;;;;;;;;5112068;28;20024;-54
2022/05/01 06:49:32;;;;;;;9.02;4.85;;;;;;;;;;5112098;28;20034;-54
2022/05/01 06:51:58;;;;;;;8.30;5.03;;;;;;;;;;5112183;28;20023;-53
2022/05/01 06:54:24;;;;;;;8.48;4.13;;;;;;;;;;5100787;28;20111;-50
2022/05/01 06:56:50;;;;;;;7.55;4.35;;;;;;;;;;5104821;28;20035;-55
2022/05/01 06:59:17;;;;;;;11.02;4.18;;;;;;;;;;5112272;28;20466;-54
2022/05/01 07:01:43;;;;;;;7.53;3.92;;;;;;;;;;5111541;28;20031;-51
2022/05/01 07:04:09;;;;;;;6.97;4.03;;;;;;;;;;5112443;28;20032;-55
2022/05/01 07:06:35;;;;;;;7.20;4.38;;;;;;;;;;5111844;28;20028;-54
2022/05/01 07:09:01;;;;;;;13.48;9.27;;;;;;;;;;5110494;28;20160;-55
2022/05/01 07:11:27;;;;;;;17.95;11.00;;;;;;;;;;5111424;28;20126;-52
2022/05/01 07:13:53;;;;;;;31.20;12.18;;;;;;;;;;5107108;28;20460;-53
2022/05/01 07:16:20;;;;;;;20.33;11.48;;;;;;;;;;5102648;28;20031;-54
2022/05/01 07:18:46;;;;;;;14.70;9.23;;;;;;;;;;5110887;28;20485;-54
2022/05/01 07:21:12;;;;;;;14.48;8.80;;;;;;;;;;5110331;28;20092;-51
2022/05/01 07:23:38;;;;;;;17.65;9.27;;;;;;;;;;5111868;28;20067;-55
2022/05/01 07:26:04;;;;;;;14.20;7.97;;;;;;;;;;5110678;28;20028;-55
2022/05/01 07:28:32;;;;;;;23.80;9.48;;;;;;;;;;5110805;28;20026;-53
2022/05/01 07:30:59;;;;;;;15.40;7.15;;;;;;;;;;5106211;28;20052;-53
2022/05/01 07:33:25;;;;;;;14.73;7.30;;;;;;;;;;5111937;27;20035;-51
2022/05/01 07:35:51;;;;;;;16.98;7.63;;;;;;;;;;5116203;27;20031;-52
2022/05/01 07:38:17;;;;;;;10.85;6.68;;;;;;;;;;5110471;28;20474;-54
2022/05/01 07:40:44;;;;;;;12.48;6.47;;;;;;;;;;5110131;28;20066;-51
2022/05/01 07:43:12;;;;;;;14.35;6.78;;;;;;;;;;5110001;28;20382;-55
2022/05/01 07:45:38;;;;;;;12.23;7.45;;;;;;;;;;5108704;28;20153;-50
2022/05/01 07:48:07;;;;;;;15.55;6.57;;;;;;;;;;5110171;28;20027;-54
2022/05/01 07:50:33;;;;;;;17.63;6.70;;;;;;;;;;5110711;28;20179;-54
2022/05/01 07:53:00;;;;;;;13.05;6.22;;;;;;;;;;5110291;28;20127;-54
2022/05/01 07:55:26;;;;;;;12.25;5.95;;;;;;;;;;5110646;28;20496;-54
2022/05/01 07:57:52;;;;;;;10.57;5.45;;;;;;;;;;5110072;28;20047;-54
2022/05/01 08:00:18;;;;;;;13.80;5.78;;;;;;;;;;5109343;28;20123;-55
2022/05/01 08:05:30;;;;;;;12.57;5.22;;;;;;;;;;5108723;28;20039;-47
2022/05/01 08:07:57;;;;;;;14.52;5.90;;;;;;;;;;5110667;28;20023;-51
2022/05/01 08:10:23;;;;;;;14.50;5.80;;;;;;;;;;5110292;28;20027;-52
2022/05/01 08:12:49;;;;;;;15.77;5.40;;;;;;;;;;5109567;28;20500;-48
2022/05/01 08:15:19;;;;;;;16.70;5.28;;;;;;;;;;5109927;28;20068;-47
2022/05/01 08:17:46;;;;;;;14.15;5.35;;;;;;;;;;5108128;28;20032;-53
2022/05/01 08:23:06;;;;;;;20.52;5.80;;;;;;;;;;5110350;28;20500;-55
2022/05/01 08:25:33;;;;;;;14.65;4.80;;;;;;;;;;5110187;28;20031;-52
2022/05/01 08:27:59;;;;;;;12.38;5.32;;;;;;;;;;5110597;28;20050;-52
2022/05/01 08:30:25;;;;;;;16.60;5.53;;;;;;;;;;5109518;28;20546;-53
2022/05/01 08:32:51;;;;;;;10.63;4.78;;;;;;;;;;5107530;28;20075;-51
2022/05/01 08:35:17;;;;;;;13.30;4.47;;;;;;;;;;5109651;28;20113;-53
2022/05/01 08:37:43;;;;;;;10.85;4.10;;;;;;;;;;5109644;27;20465;-55
2022/05/01 08:40:10;;;;;;;12.43;4.82;;;;;;;;;;5109896;27;20031;-54
2022/05/01 08:42:36;;;;;;;19.40;5.00;;;;;;;;;;5109559;28;20016;-53
2022/05/01 08:45:03;;;;;;;17.80;4.60;;;;;;;;;;5108622;28;20019;-51
2022/05/01 08:47:38;;;;;;;11.48;3.90;;;;;;;;;;5093823;28;20084;-50
2022/05/01 08:50:08;;;;;;;15.63;4.00;;;;;;;;;;5105329;27;20118;-54
2022/05/01 08:52:38;;;;;;;25.85;4.97;;;;;;;;;;5107805;28;20023;-59
2022/05/01 08:55:07;;;;;;;18.23;4.55;;;;;;;;;;5104942;28;20188;-53
2022/05/01 08:57:34;;;;;;;25.27;4.78;;;;;;;;;;5109877;28;20024;-54
2022/05/01 09:00:00;;;;;;;24.15;5.43;;;;;;;;;;5109122;28;20622;-54
2022/05/01 09:02:26;;;;;;;16.45;8.77;;;;;;;;;;5109568;28;20114;-50
2022/05/01 09:04:53;;;;;;;24.55;9.07;;;;;;;;;;5105524;28;20456;-52
2022/05/01 09:07:19;;;;;;;14.55;9.38;;;;;;;;;;5107652;28;20488;-53
2022/05/01 09:09:45;;;;;;;22.17;10.70;;;;;;;;;;5106803;28;20035;-53
2022/05/01 09:14:56;;;;;;;17.75;9.00;;;;;;;;;;5106757;28;20038;-54
2022/05/01 09:17:23;;;;;;;15.70;8.85;;;;;;;;;;5107695;28;20027;-54
2022/05/01 09:19:56;;;;;;;19.30;12.15;;;;;;;;;;5104210;28;20104;-51
2022/05/01 09:22:22;;;;;;;31.17;12.05;;;;;;;;;;5107179;28;20027;-50
2022/05/01 09:24:53;;;;;;;24.58;10.85;;;;;;;;;;5107241;28;20028;-52
2022/05/01 09:27:19;;;;;;;;;;;;;;;;;;5107517;28;20051;-50
2022/05/01 09:29:45;;;;;;;22.65;11.02;;;;;;;;;;5107453;28;19914;-53
2022/05/01 09:32:11;;;;;;;25.35;11.82;;;;;;;;;;5108612;28;20056;-50
2022/05/01 09:34:43;;;;;;;22.33;12.43;;;;;;;;;;5103405;28;20035;-56
2022/05/01 09:37:19;;;;;;;17.58;10.82;;;;;;;;;;5108694;28;20024;-50
2022/05/01 09:39:52;;;;;;;26.80;12.23;;;;;;;;;;5108499;28;20176;-57
2022/05/01 09:42:25;;;;;;;18.02;11.88;;;;;;;;;;5107401;28;20032;-53
2022/05/01 09:45:15;;;;;;;26.90;12.73;;;;;;;;;;5108814;28;20545;-55
2022/05/01 09:47:45;;;;;;;18.10;11.45;;;;;;;;;;5089848;28;20143;-50
2022/05/01 09:50:11;;;;;;;23.40;12.52;;;;;;;;;;5091761;28;20062;-53
2022/05/01 09:52:54;;;;;;;21.73;11.68;;;;;;;;;;5108325;28;20032;-51
2022/05/01 09:55:20;;;;;;;21.90;11.57;;;;;;;;;;5108324;28;20027;-54
2022/05/01 09:57:46;;;;;;;20.88;11.95;;;;;;;;;;5106388;28;20114;-53
2022/05/01 10:00:13;;;;;;;20.20;12.00;;;;;;;;;;5103166;28;20119;-52
2022/05/01 10:02:39;;;;;;;21.67;12.25;;;;;;;;;;5106835;28;20032;-53
2022/05/01 10:05:06;;;;;;;16.65;9.85;;;;;;;;;;5088702;28;20024;-53
2022/05/01 10:07:36;;;;;;;24.70;10.73;;;;;;;;;;5107357;28;20024;-53
2022/05/01 10:10:02;;;;;;;;;;;;;;;;;;5108092;28;20480;-52
2022/05/01 10:12:30;;;;;;;16.77;10.98;;;;;;;;;;5106938;28;19911;-54
2022/05/01 10:14:56;;;;;;;18.98;10.95;;;;;;;;;;5106916;28;20374;-53
2022/05/01 10:17:22;;;;;;;15.32;10.77;;;;;;;;;;5107033;28;20880;-54
2022/05/01 10:19:49;;;;;;;17.10;10.85;;;;;;;;;;5106935;28;20039;-55
2022/05/01 10:22:18;;;;;;;15.82;10.52;;;;;;;;;;5107049;28;20474;-54
2022/05/01 10:24:44;;;;;;;16.20;10.40;;;;;;;;;;5105183;28;20557;-53
2022/05/01 10:27:26;;;;;;;15.80;10.63;;;;;;;;;;5106404;28;20024;-52
2022/05/01 10:32:50;;;;;;;16.45;12.07;;;;;;;;;;5106705;28;20046;-53
2022/05/01 10:35:26;;;;;;;14.57;10.82;;;;;;;;;;5106842;28;20027;-55
2022/05/01 10:37:55;;;;;;;17.35;11.00;;;;;;;;;;5107512;28;20394;-49
2022/05/01 10:40:22;;;;;;;20.38;11.07;;;;;;;;;;5108294;28;20181;-48
2022/05/01 10:42:52;;;;;;;25.85;12.15;;;;;;;;;;5106762;28;20502;-52
2022/05/01 10:45:25;;;;;;;19.42;11.50;;;;;;;;;;5106300;28;20161;-55
2022/05/01 10:47:52;;;;;;;14.90;10.75;;;;;;;;;;5108685;28;20062;-54
2022/05/01 10:50:21;;;;;;;13.40;10.80;;;;;;;;;;5108388;28;20023;-53
2022/05/01 10:53:05;;;;;;;16.73;11.68;;;;;;;;;;5108026;28;20072;-51
2022/05/01 10:55:42;;;;;;;21.80;12.40;;;;;;;;;;5111670;28;20049;-53
2022/05/01 10:58:27;;;;;;;18.42;10.68;;;;;;;;;;5110672;28;20036;-53
2022/05/01 11:00:54;;;;;;;16.77;11.95;;;;;;;;;;5111727;28;20073;-54
2022/05/01 11:03:26;;;;;;;16.52;11.18;;;;;;;;;;5111888;28;20053;-51
2022/05/01 11:05:55;;;;;;;15.10;11.60;;;;;;;;;;5111938;28;20055;-49
2022/05/01 11:08:23;;;;;;;18.10;11.20;;;;;;;;;;5111472;28;20035;-52
2022/05/01 11:10:51;;;;;;;15.63;11.50;;;;;;;;;;5111697;28;20393;-52
2022/05/01 11:13:18;;;;;;;17.25;10.98;;;;;;;;;;5105120;28;20104;-55
2022/05/01 11:15:47;;;;;;;14.70;10.88;;;;;;;;;;5110737;28;20084;-54
2022/05/01 11:18:14;;;;;;;17.50;11.40;;;;;;;;;;5111755;28;20023;-52
2022/05/01 11:20:40;;;;;;;17.30;10.95;;;;;;;;;;5111480;27;20031;-52
2022/05/01 11:23:25;;;;;;;14.88;10.13;;;;;;;;;;5111217;28;20102;-54
2022/05/01 11:25:51;;;;;;;13.82;11.30;;;;;;;;;;5091125;28;20111;-50
2022/05/01 11:28:35;;;;;;;17.42;11.85;;;;;;;;;;5094348;28;20145;-54
2022/05/01 11:31:01;;;;;;;13.52;10.70;;;;;;;;;;5100098;28;20048;-52
2022/05/01 11:33:27;;;;;;;12.38;10.48;;;;;;;;;;5111117;28;20192;-53
2022/05/01 11:36:02;;;;;;;15.00;10.55;;;;;;;;;;5111136;28;20125;-54
2022/05/01 11:38:38;;;;;;;13.60;10.65;;;;;;;;;;5111236;28;20016;-54
2022/05/01 11:41:04;;;;;;;15.38;10.25;;;;;;;;;;5111154;28;20146;-54
2022/05/01 11:43:31;;;;;;;18.70;11.15;;;;;;;;;;5109630;28;20432;-53
2022/05/01 11:45:58;;;;;;;15.10;10.88;;;;;;;;;;5111384;28;20059;-52
2022/05/01 11:48:24;;;;;;;13.75;10.63;;;;;;;;;;5111295;28;20030;-52
2022/05/01 11:50:54;;;;;;;15.30;10.25;;;;;;;;;;5110510;28;20027;-52
2022/05/01 11:53:23;;;;;;;14.05;10.75;;;;;;;;;;5111447;28;20051;-53
2022/05/01 12:04:25;;;;;;;13.55;10.70;;;;;;;;;;5110962;28;20035;-51
2022/05/01 12:07:05;;;;;;;13.57;10.43;;;;;;;;;;5109482;28;20023;-54
2022/05/01 12:09:33;;;;;;;;;;;;;;;;;;5110815;28;20023;-52
2022/05/01 12:11:59;;;;;;;14.80;10.50;;;;;;;;;;5109935;28;19908;-51
2022/05/01 12:14:25;;;;;;;14.68;11.00;;;;;;;;;;5101164;28;20039;-54
2022/05/01 12:16:52;;;;;;;16.42;11.43;;;;;;;;;;5109701;28;20038;-54
2022/05/01 12:19:18;;;;;;;13.75;10.07;;;;;;;;;;5110000;27;20050;-52
2022/05/01 12:21:44;;;;;;;14.60;10.45;;;;;;;;;;5109873;28;20032;-55
2022/05/01 12:24:12;;;;;;;13.35;10.27;;;;;;;;;;5110401;28;20032;-52
2022/05/01 12:26:39;;;;;;;14.07;10.38;;;;;;;;;;5110103;28;20028;-53
2022/05/01 12:29:09;;;;;;;13.85;10.65;;;;;;;;;;5102509;28;20155;-54
2022/05/01 12:31:35;;;;;;;;;;;;;;;;;;5103830;28;20102;-52
2022/05/01 12:34:01;;;;;;;13.85;10.32;;;;;;;;;;5110273;28;20396;-50
2022/05/01 12:36:27;;;;;;;14.30;10.85;;;;;;;;;;5109629;28;20022;-52
2022/05/01 12:39:04;;;;;;;14.25;10.98;;;;;;;;;;5109539;28;20028;-53
2022/05/01 12:44:16;;;;;;;14.95;10.07;;;;;;;;;;5108809;28;20042;-54
2022/05/01 12:46:51;;;;;;;12.70;10.18;;;;;;;;;;5109320;28;20096;-51
2022/05/01 12:49:24;;;;;;;15.57;10.68;;;;;;;;;;5109677;27;20028;-54
2022/05/01 12:51:50;;;;;;;12.82;9.93;;;;;;;;;;5109116;28;20069;-53
2022/05/01 12:54:19;;;;;;;13.05;10.20;;;;;;;;;;5109919;28;20110;-54
2022/05/01 12:56:46;;;;;;;12.13;10.07;;;;;;;;;;5107910;28;20417;-52
2022/05/01 12:59:25;;;;;;;12.82;10.20;;;;;;;;;;5109499;28;20028;-51
2022/05/01 13:01:51;;;;;;;10.63;8.50;;;;;;;;;;5108896;28;20030;-51
2022/05/01 13:04:28;;;;;;;13.90;10.05;;;;;;;;;;5109607;28;20165;-55
2022/05/01 13:06:54;;;;;;;12.75;9.07;;;;;;;;;;5108994;28;20035;-49
2022/05/01 13:09:21;;;;;;;13.30;9.40;;;;;;;;;;5109218;28;20035;-50
2022/05/01 13:12:03;;;;;;;12.52;9.07;;;;;;;;;;5107399;28;20784;-50
2022/05/01 13:14:33;;;;;;;13.27;8.65;;;;;;;;;;5098035;28;20688;-51
2022/05/01 13:17:13;;;;;;;11.50;9.05;;;;;;;;;;5109427;28;20020;-50
2022/05/01 13:19:39;;;;;;;12.75;9.57;;;;;;;;;;5098157;28;20031;-52
2022/05/01 13:22:07;;;;;;;11.43;8.85;;;;;;;;;;5108668;28;20035;-54
2022/05/01 13:24:33;;;;;;;11.95;9.38;;;;;;;;;;5108624;28;20531;-50
2022/05/01 13:27:03;;;;;;;13.10;9.75;;;;;;;;;;5109000;28;20019;-52
2022/05/01 13:29:31;;;;;;;11.50;9.03;;;;;;;;;;5105964;28;20047;-53
2022/05/01 13:31:58;;;;;;;12.48;9.15;;;;;;;;;;5108749;28;20806;-55
2022/05/01 13:34:26;;;;;;;11.60;9.20;;;;;;;;;;5107928;28;20051;-53
2022/05/01 13:36:52;;;;;;;11.57;9.23;;;;;;;;;;5108916;28;20016;-50
2022/05/01 13:39:18;;;;;;;12.73;9.27;;;;;;;;;;5108841;28;20038;-53
2022/05/01 13:44:54;;;;;;;11.05;8.60;;;;;;;;;;5107248;28;20127;-54
2022/05/01 13:47:21;;;;;;;12.18;9.00;;;;;;;;;;5108354;28;20031;-52
2022/05/01 13:49:48;;;;;;;10.73;8.82;;;;;;;;;;5105589;28;20190;-54
2022/05/01 13:52:15;;;;;;;14.50;8.30;;;;;;;;;;5107999;28;20030;-54
2022/05/01 13:54:41;;;;;;;11.75;8.13;;;;;;;;;;5108578;28;20047;-55
2022/05/01 13:57:07;;;;;;;29.35;10.02;;;;;;;;;;5104158;28;20107;-53
2022/05/01 13:59:33;;;;;;;16.90;10.85;;;;;;;;;;5101302;28;20461;-54
2022/05/01 14:01:59;;;;;;;18.17;9.32;;;;;;;;;;5099684;28;20151;-50
2022/05/01 14:04:26;;;;;;;23.98;9.35;;;;;;;;;;5099184;28;20280;-53
2022/05/01 14:06:52;;;;;;;19.15;8.52;;;;;;;;;;5108564;28;20367;-54
2022/05/01 14:09:19;;;;;;;25.95;8.63;;;;;;;;;;5108161;28;20402;-50
2022/05/01 14:11:48;;;;;;;16.70;8.10;;;;;;;;;;5107718;28;20027;-55
2022/05/01 14:14:14;;;;;;;15.27;8.20;;;;;;;;;;5094135;28;20115;-53
2022/05/01 14:16:41;;;;;;;15.18;8.13;;;;;;;;;;5108415;28;20042;-52
2022/05/01 14:19:12;;;;;;;18.98;7.55;;;;;;;;;;5102769;28;20489;-55
2022/05/01 14:21:41;;;;;;;13.20;7.70;;;;;;;;;;5108218;28;20070;-55
2022/05/01 14:24:07;;;;;;;14.63;6.68;;;;;;;;;;5107788;28;20040;-56
2022/05/01 14:26:33;;;;;;;18.55;8.02;;;;;;;;;;5107799;28;20074;-54
2022/05/01 14:29:00;;;;;;;25.50;7.63;;;;;;;;;;5103356;28;20073;-55
2022/05/01 14:31:26;;;;;;;21.63;7.03;;;;;;;;;;5112545;28;20159;-55
2022/05/01 14:34:02;;;;;;;17.52;7.53;;;;;;;;;;5109693;28;20046;-55
2022/05/01 14:36:29;;;;;;;21.20;7.13;;;;;;;;;;5103944;28;20089;-55
2022/05/01 14:38:58;;;;;;;22.17;6.60;;;;;;;;;;5099709;28;20085;-55
2022/05/01 14:41:26;;;;;;;17.98;7.20;;;;;;;;;;5108123;28;20028;-55
2022/05/01 14:43:56;;;;;;;18.70;7.07;;;;;;;;;;5109441;28;20066;-53
2022/05/01 14:46:22;;;;;;;15.30;5.97;;;;;;;;;;5110127;28;20623;-55
2022/05/01 14:49:02;;;;;;;13.98;6.18;;;;;;;;;;5110534;28;20174;-56
2022/05/01 14:51:28;;;;;;;;;;;;;;;;;;5110087;28;20027;-54
2022/05/01 14:53:57;;;;;;;19.83;6.63;;;;;;;;;;5111299;28;19946;-53
2022/05/01 14:56:26;;;;;;;15.02;6.38;;;;;;;;;;5111569;28;20047;-49
2022/05/01 15:07:19;;;;;;;17.75;6.05;;;;;;;;;;5112087;28;20039;-55
2022/05/01 15:09:49;;;;;;;13.65;5.43;;;;;;;;;;5111890;28;20102;-57
2022/05/01 15:12:16;;;;;;;9.25;4.78;;;;;;;;;;5111029;28;20427;-50
2022/05/01 15:14:42;;;;;;;14.43;5.90;;;;;;;;;;5111511;28;20409;-55
2022/05/01 15:17:10;;;;;;;11.00;5.70;;;;;;;;;;5111144;28;20031;-54
2022/05/01 15:19:39;;;;;;;14.82;5.47;;;;;;;;;;5111818;28;20032;-52
2022/05/01 15:22:23;;;;;;;16.00;5.03;;;;;;;;;;5111294;27;20059;-55
2022/05/01 15:24:56;;;;;;;12.77;4.63;;;;;;;;;;5111228;28;20356;-57
2022/05/01 15:27:28;;;;;;;9.63;4.88;;;;;;;;;;5111437;28;20027;-55